createdAt,value
2018-02-09T00:01:25.845Z,0.00
2018-02-09T00:02:57.661Z,0.00
2018-02-09T00:04:29.478Z,0.00
2018-02-09T00:06:01.296Z,0.00
2018-02-09T00:07:33.113Z,0.00
2018-02-09T00:09:04.930Z,0.00
2018-02-09T00:10:36.759Z,0.00
2018-02-09T00:12:08.564Z,0.00
2018-02-09T00:13:40.382Z,0.00
2018-02-09T00:15:12.198Z,0.00
2018-02-09T00:16:44.916Z,0.00
2018-02-09T00:18:15.836Z,0.00
2018-02-09T00:19:47.648Z,0.00
2018-02-09T00:21:19.465Z,0.00
2018-02-09T00:22:51.283Z,0.00
2018-02-09T00:24:23.100Z,0.00
2018-02-09T00:25:54.922Z,0.00
2018-02-09T00:27:26.734Z,0.00
2018-02-09T00:28:58.701Z,0.00
2018-02-09T00:30:30.368Z,0.00
2018-02-09T00:32:02.186Z,0.00
2018-02-09T00:33:34.011Z,0.00
2018-02-09T00:35:05.919Z,0.00
2018-02-09T00:36:37.636Z,0.00
2018-02-09T00:38:09.453Z,0.00
2018-02-09T00:39:41.270Z,0.00
2018-02-09T00:41:13.088Z,0.00
2018-02-09T00:42:44.904Z,0.00
2018-02-09T00:44:16.721Z,0.00
2018-02-09T00:45:48.539Z,0.00
2018-02-09T00:47:20.456Z,0.00
2018-02-09T00:48:52.173Z,0.00
2018-02-09T00:50:23.990Z,0.00
2018-02-09T00:51:55.807Z,0.00
2018-02-09T00:53:27.724Z,0.00
2018-02-09T00:54:59.441Z,0.00
2018-02-09T00:56:31.258Z,0.00
2018-02-09T00:58:03.075Z,0.00
2018-02-09T00:59:35.043Z,0.00
2018-02-09T01:01:06.709Z,0.00
2018-02-09T01:02:38.526Z,0.00
2018-02-09T01:04:10.345Z,0.00
2018-02-09T01:05:42.159Z,0.00
2018-02-09T01:07:13.976Z,0.00
2018-02-09T01:08:45.792Z,0.00
2018-02-09T01:10:17.610Z,0.00
2018-02-09T01:11:49.526Z,0.00
2018-02-09T01:13:21.243Z,0.00
2018-02-09T01:14:53.060Z,0.00
2018-02-09T01:16:24.876Z,0.00
2018-02-09T01:17:56.792Z,0.00
2018-02-09T01:19:28.509Z,0.00
2018-02-09T01:21:00.324Z,0.00
2018-02-09T01:22:32.141Z,0.00
2018-02-09T01:24:04.111Z,0.00
2018-02-09T01:25:35.774Z,0.00
2018-02-09T01:27:07.591Z,0.00
2018-02-09T01:28:39.409Z,0.00
2018-02-09T01:30:11.325Z,0.00
2018-02-09T01:31:43.040Z,0.00
2018-02-09T01:33:14.857Z,0.00
2018-02-09T01:34:46.673Z,0.00
2018-02-09T01:36:18.490Z,0.00
2018-02-09T01:37:50.306Z,0.00
2018-02-09T01:39:22.123Z,0.00
2018-02-09T01:40:53.942Z,0.00
2018-02-09T01:42:25.756Z,0.00
2018-02-09T01:43:57.610Z,0.00
2018-02-09T01:45:29.389Z,0.00
2018-02-09T01:47:01.206Z,0.00
2018-02-09T01:48:33.221Z,0.00
2018-02-09T01:50:04.838Z,0.00
2018-02-09T01:51:36.654Z,0.00
2018-02-09T01:53:08.472Z,0.00
2018-02-09T01:54:40.288Z,0.00
2018-02-09T01:56:12.108Z,0.00
2018-02-09T01:57:43.919Z,0.00
2018-02-09T01:59:15.736Z,0.00
2018-02-09T02:00:47.704Z,0.00
2018-02-09T02:02:19.371Z,0.00
2018-02-09T02:03:51.186Z,0.00
2018-02-09T02:05:23.001Z,0.00
2018-02-09T02:06:54.917Z,0.00
2018-02-09T02:08:26.634Z,0.00
2018-02-09T02:09:58.449Z,0.00
2018-02-09T02:11:30.266Z,0.00
2018-02-09T02:13:02.084Z,0.00
2018-02-09T02:14:33.898Z,0.00
2018-02-09T02:16:05.713Z,0.00
2018-02-09T02:17:37.529Z,0.00
2018-02-09T02:19:09.596Z,0.00
2018-02-09T02:20:41.161Z,0.00
2018-02-09T02:22:12.979Z,0.00
2018-02-09T02:23:44.793Z,0.00
2018-02-09T02:25:16.710Z,0.00
2018-02-09T02:26:48.425Z,0.00
2018-02-09T02:28:20.241Z,0.00
2018-02-09T02:29:52.057Z,0.00
2018-02-09T02:31:24.024Z,0.00
2018-02-09T02:32:55.690Z,0.00
2018-02-09T02:34:27.506Z,0.00
2018-02-09T02:35:59.321Z,0.00
2018-02-09T02:37:31.239Z,0.00
2018-02-09T02:39:02.955Z,0.00
2018-02-09T02:40:34.771Z,0.00
2018-02-09T02:42:06.588Z,0.00
2018-02-09T02:43:38.501Z,0.00
2018-02-09T02:45:10.267Z,0.00
2018-02-09T02:46:42.038Z,0.00
2018-02-09T02:48:13.848Z,0.00
2018-02-09T02:49:45.765Z,0.00
2018-02-09T02:51:17.478Z,0.00
2018-02-09T02:52:49.294Z,0.00
2018-02-09T02:54:21.110Z,0.00
2018-02-09T02:55:53.074Z,0.00
2018-02-09T02:57:24.739Z,0.00
2018-02-09T02:58:56.554Z,0.00
2018-02-09T03:00:28.370Z,0.00
2018-02-09T03:02:00.285Z,0.00
2018-02-09T03:03:32.001Z,0.00
2018-02-09T03:05:03.816Z,0.00
2018-02-09T03:06:35.632Z,0.00
2018-02-09T03:08:07.448Z,0.00
2018-02-09T03:09:39.262Z,0.00
2018-02-09T03:11:11.078Z,0.00
2018-02-09T03:12:42.895Z,0.00
2018-02-09T03:14:14.709Z,0.00
2018-02-09T03:15:46.525Z,0.00
2018-02-09T03:17:18.340Z,0.00
2018-02-09T03:18:50.158Z,0.00
2018-02-09T03:20:22.179Z,0.00
2018-02-09T03:21:53.788Z,0.00
2018-02-09T03:23:25.603Z,0.00
2018-02-09T03:24:57.419Z,0.00
2018-02-09T03:26:29.385Z,0.00
2018-02-09T03:28:01.050Z,0.00
2018-02-09T03:29:32.867Z,0.00
2018-02-09T03:31:04.684Z,0.00
2018-02-09T03:32:36.498Z,0.00
2018-02-09T03:34:08.313Z,0.00
2018-02-09T03:35:40.129Z,0.00
2018-02-09T03:37:11.946Z,0.00
2018-02-09T03:38:43.861Z,0.00
2018-02-09T03:40:15.576Z,0.00
2018-02-09T03:41:47.392Z,0.00
2018-02-09T03:43:19.208Z,0.00
2018-02-09T03:44:51.023Z,0.00
2018-02-09T03:46:22.838Z,0.00
2018-02-09T03:47:54.654Z,0.00
2018-02-09T03:49:26.470Z,0.00
2018-02-09T03:50:58.386Z,0.00
2018-02-09T03:52:30.101Z,0.00
2018-02-09T03:54:01.917Z,0.00
2018-02-09T03:55:33.734Z,0.00
2018-02-09T03:57:05.650Z,0.00
2018-02-09T03:58:37.365Z,0.00
2018-02-09T04:00:09.181Z,0.00
2018-02-09T04:01:40.996Z,0.00
2018-02-09T04:03:12.963Z,0.00
2018-02-09T04:04:44.628Z,0.00
2018-02-09T04:06:16.443Z,0.00
2018-02-09T04:07:48.259Z,0.00
2018-02-09T04:09:20.074Z,0.00
2018-02-09T04:10:51.891Z,0.00
2018-02-09T04:12:23.706Z,0.00
2018-02-09T04:13:55.521Z,0.00
2018-02-09T04:15:27.450Z,0.00
2018-02-09T04:16:59.153Z,0.00
2018-02-09T04:18:30.969Z,0.00
2018-02-09T04:20:02.785Z,0.00
2018-02-09T04:21:34.701Z,0.00
2018-02-09T04:23:06.417Z,0.00
2018-02-09T04:24:38.233Z,0.00
2018-02-09T04:26:10.053Z,0.00
2018-02-09T04:27:41.869Z,0.00
2018-02-09T04:29:13.684Z,0.00
2018-02-09T04:30:45.501Z,0.00
2018-02-09T04:32:17.310Z,0.00
2018-02-09T04:33:49.377Z,0.00
2018-02-09T04:35:20.943Z,0.00
2018-02-09T04:36:52.796Z,0.00
2018-02-09T04:38:24.572Z,0.00
2018-02-09T04:39:56.387Z,0.00
2018-02-09T04:41:28.202Z,0.00
2018-02-09T04:43:00.020Z,0.00
2018-02-09T04:44:31.833Z,0.00
2018-02-09T04:46:03.648Z,0.00
2018-02-09T04:47:35.463Z,0.00
2018-02-09T04:49:07.279Z,0.00
2018-02-09T04:50:39.097Z,0.00
2018-02-09T04:52:11.110Z,0.00
2018-02-09T04:53:42.725Z,0.00
2018-02-09T04:55:14.540Z,0.00
2018-02-09T04:56:46.355Z,0.00
2018-02-09T04:58:18.321Z,0.00
2018-02-09T04:59:49.991Z,0.00
2018-02-09T05:01:21.803Z,0.00
2018-02-09T05:02:53.617Z,0.00
2018-02-09T05:04:25.432Z,0.00
2018-02-09T05:05:57.248Z,0.00
2018-02-09T05:07:29.063Z,0.00
2018-02-09T05:09:00.884Z,0.00
2018-02-09T05:10:32.950Z,0.00
2018-02-09T05:12:04.515Z,0.00
2018-02-09T05:13:36.329Z,0.00
2018-02-09T05:15:08.145Z,0.00
2018-02-09T05:16:39.961Z,0.00
2018-02-09T05:18:11.776Z,0.00
2018-02-09T05:19:43.592Z,0.00
2018-02-09T05:21:15.407Z,0.00
2018-02-09T05:22:47.322Z,0.00
2018-02-09T05:24:19.038Z,0.00
2018-02-09T05:25:50.853Z,0.00
2018-02-09T05:27:22.670Z,0.00
2018-02-09T05:28:55.082Z,0.00
2018-02-09T05:30:26.299Z,0.00
2018-02-09T05:31:58.115Z,0.00
2018-02-09T05:33:29.930Z,0.00
2018-02-09T05:35:01.896Z,0.00
2018-02-09T05:36:33.561Z,0.00
2018-02-09T05:38:05.376Z,0.00
2018-02-09T05:39:37.192Z,0.00
2018-02-09T05:41:09.008Z,0.00
2018-02-09T05:42:40.823Z,0.00
2018-02-09T05:44:12.640Z,0.00
2018-02-09T05:45:44.454Z,0.00
2018-02-09T05:47:16.372Z,0.00
2018-02-09T05:48:48.085Z,0.00
2018-02-09T05:50:19.900Z,0.00
2018-02-09T05:51:51.715Z,0.00
2018-02-09T05:53:23.632Z,0.00
2018-02-09T05:54:55.346Z,0.00
2018-02-09T05:56:27.161Z,0.00
2018-02-09T05:57:58.976Z,0.00
2018-02-09T05:59:30.942Z,0.00
2018-02-09T06:01:02.606Z,0.00
2018-02-09T06:02:34.422Z,0.00
2018-02-09T06:04:06.237Z,0.00
2018-02-09T06:05:38.402Z,0.00
2018-02-09T06:07:09.867Z,0.00
2018-02-09T06:08:41.682Z,0.00
2018-02-09T06:10:13.497Z,0.00
2018-02-09T06:11:45.463Z,0.00
2018-02-09T06:13:17.130Z,0.00
2018-02-09T06:14:48.943Z,0.00
2018-02-09T06:16:20.759Z,0.00
2018-02-09T06:17:52.574Z,0.00
2018-02-09T06:19:24.390Z,0.00
2018-02-09T06:20:56.204Z,0.00
2018-02-09T06:22:28.025Z,0.00
2018-02-09T06:24:00.036Z,0.00
2018-02-09T06:25:31.650Z,0.00
2018-02-09T06:27:03.465Z,0.00
2018-02-09T06:28:35.280Z,0.00
2018-02-09T06:30:07.246Z,0.00
2018-02-09T06:31:38.911Z,0.00
2018-02-09T06:33:10.725Z,0.00
2018-02-09T06:34:42.548Z,0.00
2018-02-09T06:36:14.358Z,0.00
2018-02-09T06:37:46.171Z,0.00
2018-02-09T06:39:17.987Z,0.00
2018-02-09T06:40:49.802Z,0.00
2018-02-09T06:42:21.718Z,0.00
2018-02-09T06:43:53.432Z,0.00
2018-02-09T06:45:25.246Z,0.00
2018-02-09T06:46:57.062Z,0.00
2018-02-09T06:48:28.877Z,0.00
2018-02-09T06:50:00.693Z,0.00
2018-02-09T06:51:32.508Z,0.00
2018-02-09T06:53:04.322Z,0.00
2018-02-09T06:54:36.237Z,0.00
2018-02-09T06:56:07.952Z,0.00
2018-02-09T06:57:39.773Z,0.00
2018-02-09T06:59:11.592Z,0.00
2018-02-09T07:00:43.648Z,0.00
2018-02-09T07:02:15.212Z,0.00
2018-02-09T07:03:47.027Z,0.00
2018-02-09T07:05:18.842Z,0.00
2018-02-09T07:06:50.657Z,0.00
2018-02-09T07:08:22.479Z,0.00
2018-02-09T07:09:54.314Z,0.00
2018-02-09T07:11:26.102Z,0.00
2018-02-09T07:12:58.168Z,0.00
2018-02-09T07:14:29.732Z,0.00
2018-02-09T07:16:01.547Z,0.00
2018-02-09T07:17:33.362Z,0.00
2018-02-09T07:19:05.277Z,0.00
2018-02-09T07:20:36.992Z,0.00
2018-02-09T07:22:08.813Z,0.00
2018-02-09T07:23:40.621Z,0.00
2018-02-09T07:25:12.536Z,0.00
2018-02-09T07:26:44.250Z,0.00
2018-02-09T07:28:16.065Z,0.00
2018-02-09T07:29:47.880Z,0.00
2018-02-09T07:31:19.845Z,0.00
2018-02-09T07:32:51.565Z,0.00
2018-02-09T07:34:23.324Z,0.00
2018-02-09T07:35:55.139Z,0.00
2018-02-09T07:37:27.305Z,0.00
2018-02-09T07:38:58.769Z,0.00
2018-02-09T07:40:30.584Z,0.00
2018-02-09T07:42:02.398Z,0.00
2018-02-09T07:43:34.213Z,0.00
2018-02-09T07:45:06.028Z,0.00
2018-02-09T07:46:37.842Z,0.00
2018-02-09T07:48:09.657Z,0.00
2018-02-09T07:49:41.472Z,0.00
2018-02-09T07:51:13.287Z,0.00
2018-02-09T07:52:45.102Z,0.00
2018-02-09T07:54:16.917Z,0.00
2018-02-09T07:55:48.981Z,0.00
2018-02-09T07:57:20.546Z,0.00
2018-02-09T07:58:52.361Z,0.00
2018-02-09T08:00:24.176Z,0.00
2018-02-09T08:01:56.143Z,0.00
2018-02-09T08:03:27.805Z,0.00
2018-02-09T08:04:59.620Z,0.00
2018-02-09T08:06:31.435Z,0.00
2018-02-09T08:08:03.505Z,0.00
2018-02-09T08:09:35.064Z,0.00
2018-02-09T08:11:06.879Z,0.00
2018-02-09T08:12:38.694Z,0.00
2018-02-09T08:14:10.610Z,0.00
2018-02-09T08:15:42.323Z,0.00
2018-02-09T08:17:14.164Z,0.00
2018-02-09T08:18:45.952Z,0.00
2018-02-09T08:20:17.767Z,0.00
2018-02-09T08:21:49.582Z,0.00
2018-02-09T08:23:21.397Z,0.00
2018-02-09T08:24:53.212Z,4.00
2018-02-09T08:26:25.127Z,4.00
2018-02-09T08:27:56.841Z,4.00
2018-02-09T08:29:28.656Z,8.00
2018-02-09T08:31:00.471Z,8.00
2018-02-09T08:32:32.386Z,12.00
2018-02-09T08:34:04.124Z,20.00
2018-02-09T08:35:35.914Z,32.00
2018-02-09T08:37:07.729Z,44.00
2018-02-09T08:38:39.552Z,64.00
2018-02-09T08:40:11.359Z,88.00
2018-02-09T08:41:43.173Z,124.00
2018-02-09T08:43:15.012Z,168.00
2018-02-09T08:44:46.804Z,216.00
2018-02-09T08:46:18.617Z,280.00
2018-02-09T08:47:50.459Z,352.00
2018-02-09T08:49:22.247Z,436.00
2018-02-09T08:50:54.162Z,532.00
2018-02-09T08:52:25.877Z,636.00
2018-02-09T08:53:57.691Z,752.00
2018-02-09T08:55:29.506Z,880.00
2018-02-09T08:57:01.422Z,1016.00
2018-02-09T08:58:33.136Z,1164.00
2018-02-09T09:00:04.967Z,1328.00
2018-02-09T09:01:36.769Z,1508.00
2018-02-09T09:03:08.581Z,1700.00
2018-02-09T09:04:40.395Z,1888.00
2018-02-09T09:06:12.210Z,2124.00
2018-02-09T09:07:44.025Z,2396.00
2018-02-09T09:09:15.940Z,2644.00
2018-02-09T09:10:47.655Z,2868.00
2018-02-09T09:12:19.470Z,3104.00
2018-02-09T09:13:51.286Z,3400.00
2018-02-09T09:15:23.120Z,3664.00
2018-02-09T09:16:54.917Z,3916.00
2018-02-09T09:18:26.732Z,4116.00
2018-02-09T09:19:58.600Z,4384.00
2018-02-09T09:21:30.383Z,4672.00
2018-02-09T09:23:02.179Z,4940.00
2018-02-09T09:24:33.995Z,5204.00
2018-02-09T09:26:05.813Z,5468.00
2018-02-09T09:27:37.848Z,5840.00
2018-02-09T09:29:09.444Z,6180.00
2018-02-09T09:30:41.260Z,6404.00
2018-02-09T09:32:13.090Z,6568.00
2018-02-09T09:33:44.893Z,6916.00
2018-02-09T09:35:16.709Z,7240.00
2018-02-09T09:36:48.526Z,7452.00
2018-02-09T09:38:20.346Z,6548.00
2018-02-09T09:39:52.161Z,8036.00
2018-02-09T09:41:23.977Z,8600.00
2018-02-09T09:42:55.794Z,9108.00
2018-02-09T09:44:27.612Z,9376.00
2018-02-09T09:46:00.292Z,9860.00
2018-02-09T09:47:31.247Z,10452.00
2018-02-09T09:49:03.346Z,11012.00
2018-02-09T09:50:34.915Z,11228.00
2018-02-09T09:52:06.720Z,11296.00
2018-02-09T09:53:38.513Z,11660.00
2018-02-09T09:55:10.331Z,12396.00
2018-02-09T09:56:42.150Z,13280.00
2018-02-09T09:58:14.068Z,13972.00
2018-02-09T09:59:45.809Z,13884.00
2018-02-09T10:01:17.606Z,13820.00
2018-02-09T10:02:49.425Z,13504.00
2018-02-09T10:04:21.344Z,13436.00
2018-02-09T10:05:53.062Z,13900.00
2018-02-09T10:07:24.892Z,14300.00
2018-02-09T10:08:56.698Z,14716.00
2018-02-09T10:10:28.518Z,16108.00
2018-02-09T10:12:00.348Z,16908.00
2018-02-09T10:13:32.159Z,16404.00
2018-02-09T10:15:03.976Z,16384.00
2018-02-09T10:16:35.812Z,17336.00
2018-02-09T10:18:07.760Z,16840.00
2018-02-09T10:19:39.447Z,15980.00
2018-02-09T10:21:11.256Z,15676.00
2018-02-09T10:22:43.175Z,16592.00
2018-02-09T10:24:14.895Z,17720.00
2018-02-09T10:25:46.715Z,20160.00
2018-02-09T10:27:18.536Z,22208.00
2018-02-09T10:28:50.364Z,21184.00
2018-02-09T10:30:22.175Z,19488.00
2018-02-09T10:31:53.996Z,25184.00
2018-02-09T10:33:25.863Z,29600.00
2018-02-09T10:34:57.790Z,32672.00
2018-02-09T10:36:29.510Z,38688.00
2018-02-09T10:38:01.278Z,33888.00
2018-02-09T10:39:33.100Z,24416.00
2018-02-09T10:41:05.131Z,18560.00
2018-02-09T10:42:36.790Z,17212.00
2018-02-09T10:44:08.567Z,16972.00
2018-02-09T10:45:40.436Z,16884.00
2018-02-09T10:47:12.221Z,17024.00
2018-02-09T10:48:44.044Z,17084.00
2018-02-09T10:50:15.887Z,17544.00
2018-02-09T10:51:47.668Z,17664.00
2018-02-09T10:53:19.490Z,17728.00
2018-02-09T10:54:51.363Z,17952.00
2018-02-09T10:56:23.137Z,18476.00
2018-02-09T10:57:54.967Z,18912.00
2018-02-09T10:59:26.881Z,19616.00
2018-02-09T11:00:58.602Z,20352.00
2018-02-09T11:02:30.425Z,20704.00
2018-02-09T11:04:02.249Z,21376.00
2018-02-09T11:05:34.279Z,22272.00
2018-02-09T11:07:05.900Z,23456.00
2018-02-09T11:08:37.716Z,26176.00
2018-02-09T11:10:09.540Z,30016.00
2018-02-09T11:11:41.362Z,31104.00
2018-02-09T11:13:13.210Z,29248.00
2018-02-09T11:14:45.011Z,33312.00
2018-02-09T11:16:16.831Z,40896.00
2018-02-09T11:17:48.756Z,49984.00
2018-02-09T11:19:20.480Z,54144.00
2018-02-09T11:20:52.313Z,56288.00
2018-02-09T11:22:24.129Z,60128.00
2018-02-09T11:23:55.950Z,61056.00
2018-02-09T11:25:27.774Z,57984.00
2018-02-09T11:26:59.600Z,55776.00
2018-02-09T11:28:31.422Z,57312.00
2018-02-09T11:30:03.350Z,55744.00
2018-02-09T11:31:35.072Z,57280.00
2018-02-09T11:33:07.028Z,60448.00
2018-02-09T11:34:38.720Z,59744.00
2018-02-09T11:36:10.819Z,60032.00
2018-02-09T11:37:42.370Z,59904.00
2018-02-09T11:39:14.212Z,61696.00
2018-02-09T11:40:46.017Z,59264.00
2018-02-09T11:42:17.841Z,58816.00
2018-02-09T11:43:49.671Z,62880.00
2018-02-09T11:45:21.490Z,62976.00
2018-02-09T11:46:53.342Z,63104.00
2018-02-09T11:48:25.142Z,59808.00
2018-02-09T11:49:56.964Z,60608.00
2018-02-09T11:51:28.789Z,61984.00
2018-02-09T11:53:00.622Z,63040.00
2018-02-09T11:54:32.539Z,64000.00
2018-02-09T11:56:04.265Z,61760.00
2018-02-09T11:57:36.089Z,65920.00
2018-02-09T11:59:07.915Z,65120.00
2018-02-09T12:00:40.028Z,59104.00
2018-02-09T12:02:11.565Z,59616.00
2018-02-09T12:03:43.390Z,63872.00
2018-02-09T12:05:15.217Z,68896.00
2018-02-09T12:06:47.042Z,70208.00
2018-02-09T12:08:18.867Z,70688.00
2018-02-09T12:09:50.702Z,73344.00
2018-02-09T12:11:22.519Z,74880.00
2018-02-09T12:12:54.444Z,71872.00
2018-02-09T12:14:26.170Z,73952.00
2018-02-09T12:15:57.997Z,78336.00
2018-02-09T12:17:29.824Z,76928.00
2018-02-09T12:19:01.648Z,78464.00
2018-02-09T12:20:33.501Z,84256.00
2018-02-09T12:22:05.300Z,86016.00
2018-02-09T12:23:37.126Z,88224.00
2018-02-09T12:25:09.160Z,88800.00
2018-02-09T12:26:40.779Z,91712.00
2018-02-09T12:28:12.605Z,90912.00
2018-02-09T12:29:44.440Z,91680.00
2018-02-09T12:31:16.458Z,97056.00
2018-02-09T12:32:48.087Z,91392.00
2018-02-09T12:34:19.911Z,87232.00
2018-02-09T12:35:51.737Z,94784.00
2018-02-09T12:37:23.564Z,99552.00
2018-02-09T12:38:55.390Z,98912.00
2018-02-09T12:40:27.260Z,99712.00
2018-02-09T12:41:59.044Z,97600.00
2018-02-09T12:43:30.871Z,96928.00
2018-02-09T12:45:02.700Z,98272.00
2018-02-09T12:46:34.525Z,99808.00
2018-02-09T12:48:06.352Z,103520.00
2018-02-09T12:49:38.280Z,103328.00
2018-02-09T12:51:10.008Z,100096.00
2018-02-09T12:52:41.835Z,101344.00
2018-02-09T12:54:13.663Z,101088.00
2018-02-09T12:55:45.531Z,103424.00
2018-02-09T12:57:17.323Z,101504.00
2018-02-09T12:58:49.146Z,96064.00
2018-02-09T13:00:20.974Z,89568.00
2018-02-09T13:01:52.902Z,88512.00
2018-02-09T13:03:24.630Z,89824.00
2018-02-09T13:04:56.460Z,92288.00
2018-02-09T13:06:28.288Z,92256.00
2018-02-09T13:08:00.235Z,91360.00
2018-02-09T13:09:31.943Z,92960.00
2018-02-09T13:11:03.772Z,92448.00
2018-02-09T13:12:35.604Z,89856.00
2018-02-09T13:14:07.429Z,86272.00
2018-02-09T13:15:39.258Z,78880.00
2018-02-09T13:17:12.065Z,82944.00
2018-02-09T13:18:52.536Z,89856.00
2018-02-09T13:20:15.040Z,88960.00
2018-02-09T13:21:46.614Z,88512.00
2018-02-09T13:23:18.400Z,91968.00
2018-02-09T13:24:51.175Z,89696.00
2018-02-09T13:26:22.176Z,89984.00
2018-02-09T13:27:53.885Z,91104.00
2018-02-09T13:29:25.714Z,92352.00
2018-02-09T13:30:57.574Z,92096.00
2018-02-09T13:32:29.404Z,94272.00
2018-02-09T13:34:03.954Z,92160.00
2018-02-09T13:35:33.029Z,89216.00
2018-02-09T13:37:04.861Z,86272.00
2018-02-09T13:38:36.689Z,87680.00
2018-02-09T13:40:08.521Z,84576.00
2018-02-09T13:41:40.346Z,80448.00
2018-02-09T13:43:12.177Z,78944.00
2018-02-09T13:44:44.130Z,80736.00
2018-02-09T13:46:15.836Z,85120.00
2018-02-09T13:47:47.675Z,85920.00
2018-02-09T13:49:19.495Z,92096.00
2018-02-09T13:50:51.640Z,86592.00
2018-02-09T13:52:23.989Z,67520.00
2018-02-09T13:53:55.229Z,71968.00
2018-02-09T13:55:27.149Z,82720.00
2018-02-09T13:57:01.107Z,88416.00
2018-02-09T13:58:30.485Z,83104.00
2018-02-09T14:00:02.323Z,85824.00
2018-02-09T14:01:34.135Z,93952.00
2018-02-09T14:03:06.240Z,98240.00
2018-02-09T14:04:37.796Z,94720.00
2018-02-09T14:06:15.958Z,97952.00
2018-02-09T14:07:42.241Z,104064.00
2018-02-09T14:09:16.230Z,98720.00
2018-02-09T14:10:46.789Z,86240.00
2018-02-09T14:12:18.923Z,71712.00
2018-02-09T14:13:48.782Z,71328.00
2018-02-09T14:15:20.624Z,69920.00
2018-02-09T14:16:52.446Z,89152.00
2018-02-09T14:18:24.276Z,81280.00
2018-02-09T14:19:56.111Z,60256.00
2018-02-09T14:21:28.038Z,61120.00
2018-02-09T14:22:59.769Z,65664.00
2018-02-09T14:24:31.602Z,72864.00
2018-02-09T14:26:03.433Z,82176.00
2018-02-09T14:27:35.414Z,86592.00
2018-02-09T14:29:07.336Z,81728.00
2018-02-09T14:30:40.443Z,83936.00
2018-02-09T14:32:10.806Z,88544.00
2018-02-09T14:33:42.741Z,97152.00
2018-02-09T14:35:14.422Z,103360.00
2018-02-09T14:36:46.254Z,99520.00
2018-02-09T14:38:18.087Z,100544.00
2018-02-09T14:39:50.019Z,102688.00
2018-02-09T14:41:21.749Z,98272.00
2018-02-09T14:42:53.585Z,105440.00
2018-02-09T14:44:25.412Z,111392.00
2018-02-09T14:45:57.244Z,115456.00
2018-02-09T14:47:29.076Z,105920.00
2018-02-09T14:49:00.908Z,105056.00
2018-02-09T14:50:32.741Z,110080.00
2018-02-09T14:52:04.573Z,108256.00
2018-02-09T14:53:36.404Z,105760.00
2018-02-09T14:55:08.236Z,104896.00
2018-02-09T14:56:40.068Z,104768.00
2018-02-09T14:58:12.003Z,109472.00
2018-02-09T14:59:43.733Z,112032.00
2018-02-09T15:01:15.565Z,111264.00
2018-02-09T15:02:47.397Z,118432.00
2018-02-09T15:04:19.235Z,118944.00
2018-02-09T15:05:51.065Z,128832.00
2018-02-09T15:07:22.895Z,129792.00
2018-02-09T15:08:54.727Z,134784.00
2018-02-09T15:10:26.561Z,145312.00
2018-02-09T15:11:58.394Z,156864.00
2018-02-09T15:13:30.230Z,135520.00
2018-02-09T15:15:02.063Z,129184.00
2018-02-09T15:16:34.056Z,29024.00
2018-02-09T15:18:05.732Z,28224.00
2018-02-09T15:19:37.567Z,27968.00
2018-02-09T15:21:09.404Z,30400.00
2018-02-09T15:22:41.259Z,50080.00
2018-02-09T15:24:13.078Z,114304.00
2018-02-09T15:25:44.892Z,29248.00
2018-02-09T15:27:17.518Z,27104.00
2018-02-09T15:28:48.800Z,31488.00
2018-02-09T15:30:20.588Z,34944.00
2018-02-09T15:31:52.208Z,111360.00
2018-02-09T15:33:24.037Z,125568.00
2018-02-09T15:34:55.966Z,128416.00
2018-02-09T15:36:27.696Z,125088.00
2018-02-09T15:37:59.525Z,53312.00
2018-02-09T15:39:31.355Z,32736.00
2018-02-09T15:41:03.186Z,34368.00
2018-02-09T15:42:35.016Z,40832.00
2018-02-09T15:44:06.846Z,93536.00
2018-02-09T15:45:38.763Z,123968.00
2018-02-09T15:47:10.520Z,32928.00
2018-02-09T15:48:42.335Z,34240.00
2018-02-09T15:50:14.165Z,133088.00
2018-02-09T15:51:45.996Z,135936.00
2018-02-09T15:53:17.926Z,140352.00
2018-02-09T15:54:49.656Z,135232.00
2018-02-09T15:56:21.487Z,133312.00
2018-02-09T15:57:53.317Z,130144.00
2018-02-09T15:59:25.211Z,125216.00
2018-02-09T16:00:57.011Z,131680.00
2018-02-09T16:02:28.815Z,119616.00
2018-02-09T16:04:00.666Z,125792.00
2018-02-09T16:05:32.581Z,24896.00
2018-02-09T16:07:04.315Z,23072.00
2018-02-09T16:08:36.147Z,22656.00
2018-02-09T16:10:07.980Z,22880.00
2018-02-09T16:11:39.911Z,23008.00
2018-02-09T16:13:11.639Z,24448.00
2018-02-09T16:14:43.468Z,27872.00
2018-02-09T16:16:15.300Z,32032.00
2018-02-09T16:17:47.129Z,113024.00
2018-02-09T16:19:18.974Z,106176.00
2018-02-09T16:20:50.784Z,90240.00
2018-02-09T16:22:22.609Z,52320.00
2018-02-09T16:23:54.438Z,101696.00
2018-02-09T16:25:26.275Z,100096.00
2018-02-09T16:26:58.096Z,105888.00
2018-02-09T16:28:29.926Z,89312.00
2018-02-09T16:30:01.857Z,101312.00
2018-02-09T16:31:33.587Z,78016.00
2018-02-09T16:33:05.420Z,76544.00
2018-02-09T16:34:37.248Z,72608.00
2018-02-09T16:36:09.077Z,83488.00
2018-02-09T16:37:40.908Z,96640.00
2018-02-09T16:39:12.737Z,102464.00
2018-02-09T16:40:44.570Z,120576.00
2018-02-09T16:42:16.411Z,132960.00
2018-02-09T16:43:48.228Z,130688.00
2018-02-09T16:45:20.080Z,122400.00
2018-02-09T16:46:51.894Z,121408.00
2018-02-09T16:48:23.823Z,122912.00
2018-02-09T16:49:55.556Z,105632.00
2018-02-09T16:51:27.971Z,28480.00
2018-02-09T16:52:59.291Z,27808.00
2018-02-09T16:54:31.053Z,26848.00
2018-02-09T16:56:02.885Z,25760.00
2018-02-09T16:57:34.717Z,28320.00
2018-02-09T16:59:06.545Z,123072.00
2018-02-09T17:00:38.376Z,120832.00
2018-02-09T17:02:10.207Z,118496.00
2018-02-09T17:03:42.038Z,115296.00
2018-02-09T17:05:13.868Z,119680.00
2018-02-09T17:06:45.799Z,120384.00
2018-02-09T17:08:17.532Z,120512.00
2018-02-09T17:09:49.367Z,119200.00
2018-02-09T17:11:21.251Z,119072.00
2018-02-09T17:12:53.036Z,119744.00
2018-02-09T17:14:24.891Z,118816.00
2018-02-09T17:15:57.040Z,120032.00
2018-02-09T17:17:28.543Z,122656.00
2018-02-09T17:19:00.438Z,121568.00
2018-02-09T17:20:32.217Z,120672.00
2018-02-09T17:22:04.078Z,120416.00
2018-02-09T17:23:35.902Z,59328.00
2018-02-09T17:25:07.828Z,114784.00
2018-02-09T17:26:39.566Z,46880.00
2018-02-09T17:28:11.404Z,63712.00
2018-02-09T17:29:43.238Z,118400.00
2018-02-09T17:31:15.073Z,116000.00
2018-02-09T17:32:46.909Z,95392.00
2018-02-09T17:34:18.745Z,29216.00
2018-02-09T17:35:50.580Z,98592.00
2018-02-09T17:37:22.416Z,31776.00
2018-02-09T17:38:54.245Z,29632.00
2018-02-09T17:40:26.078Z,31904.00
2018-02-09T17:41:57.913Z,30336.00
2018-02-09T17:43:29.942Z,109248.00
2018-02-09T17:45:01.884Z,110688.00
2018-02-09T17:46:33.403Z,99136.00
2018-02-09T17:48:05.234Z,115712.00
2018-02-09T17:49:37.064Z,120768.00
2018-02-09T17:51:08.895Z,120768.00
2018-02-09T17:52:40.730Z,130016.00
2018-02-09T17:54:12.563Z,39392.00
2018-02-09T17:55:44.392Z,41280.00
2018-02-09T17:57:16.224Z,44992.00
2018-02-09T17:58:48.055Z,53248.00
2018-02-09T18:00:19.886Z,123648.00
2018-02-09T18:01:51.818Z,113312.00
2018-02-09T18:03:23.549Z,111360.00
2018-02-09T18:04:55.380Z,110080.00
2018-02-09T18:06:27.212Z,109696.00
2018-02-09T18:07:59.045Z,109760.00
2018-02-09T18:09:30.879Z,108896.00
2018-02-09T18:11:02.711Z,105760.00
2018-02-09T18:12:34.544Z,102592.00
2018-02-09T18:14:06.378Z,101120.00
2018-02-09T18:15:38.213Z,100448.00
2018-02-09T18:17:10.047Z,34624.00
2018-02-09T18:18:41.881Z,28576.00
2018-02-09T18:20:13.815Z,26848.00
2018-02-09T18:21:45.548Z,26432.00
2018-02-09T18:23:17.381Z,25504.00
2018-02-09T18:24:49.211Z,23328.00
2018-02-09T18:26:21.043Z,23392.00
2018-02-09T18:27:52.873Z,52256.00
2018-02-09T18:29:24.705Z,84000.00
2018-02-09T18:30:56.553Z,75680.00
2018-02-09T18:32:28.360Z,68384.00
2018-02-09T18:34:00.189Z,25696.00
2018-02-09T18:35:32.039Z,25216.00
2018-02-09T18:37:03.848Z,25600.00
2018-02-09T18:38:35.775Z,25952.00
2018-02-09T18:40:07.508Z,26080.00
2018-02-09T18:41:39.331Z,27360.00
2018-02-09T18:43:11.159Z,28096.00
2018-02-09T18:44:42.985Z,28128.00
2018-02-09T18:46:14.811Z,30880.00
2018-02-09T18:47:46.640Z,25312.00
2018-02-09T18:49:18.471Z,22944.00
2018-02-09T18:50:50.292Z,39424.00
2018-02-09T18:52:22.118Z,33536.00
2018-02-09T18:53:53.945Z,38816.00
2018-02-09T18:55:25.775Z,42528.00
2018-02-09T18:56:57.698Z,44256.00